sensor_id;sensor_type;location;lat;lon;timestamp;temperature;humidity
3001;DHT22;1510;51.072;6.678;2023-03-14T00:00:51;11.20;99.90
3001;DHT22;1510;51.072;6.678;2023-03-14T00:03:23;11.30;99.90
3001;DHT22;1510;51.072;6.678;2023-03-14T00:05:50;11.60;99.90
3001;DHT22;1510;51.072;6.678;2023-03-14T00:08:18;11.50;99.90
3001;DHT22;1510;51.072;6.678;2023-03-14T00:10:47;11.60;99.90
3001;DHT22;1510;51.072;6.678;2023-03-14T00:13:14;11.50;99.90
3001;DHT22;1510;51.072;6.678;2023-03-14T00:15:40;11.50;99.90
3001;DHT22;1510;51.072;6.678;2023-03-14T00:18:09;11.40;99.90
3001;DHT22;1510;51.072;6.678;2023-03-14T00:20:36;11.40;99.90
3001;DHT22;1510;51.072;6.678;2023-03-14T00:23:03;11.40;99.90
3001;DHT22;1510;51.072;6.678;2023-03-14T00:25:31;11.60;99.90
3001;DHT22;1510;51.072;6.678;2023-03-14T00:27:58;11.80;99.90
3001;DHT22;1510;51.072;6.678;2023-03-14T00:30:29;11.80;99.90
3001;DHT22;1510;51.072;6.678;2023-03-14T00:32:56;11.90;99.90
3001;DHT22;1510;51.072;6.678;2023-03-14T00:35:23;12.10;99.90
3001;DHT22;1510;51.072;6.678;2023-03-14T00:37:51;11.60;99.90
3001;DHT22;1510;51.072;6.678;2023-03-14T00:40:22;11.00;99.90
3001;DHT22;1510;51.072;6.678;2023-03-14T00:42:50;9.80;99.90
3001;DHT22;1510;51.072;6.678;2023-03-14T00:45:21;9.00;99.90
3001;DHT22;1510;51.072;6.678;2023-03-14T00:47:51;8.70;99.90
3001;DHT22;1510;51.072;6.678;2023-03-14T00:50:22;8.60;99.90
3001;DHT22;1510;51.072;6.678;2023-03-14T00:52:49;8.50;99.90
3001;DHT22;1510;51.072;6.678;2023-03-14T00:55:19;8.50;99.90
3001;DHT22;1510;51.072;6.678;2023-03-14T00:57:50;8.50;99.90
3001;DHT22;1510;51.072;6.678;2023-03-14T01:00:19;8.40;99.90
3001;DHT22;1510;51.072;6.678;2023-03-14T01:02:46;8.40;99.90
3001;DHT22;1510;51.072;6.678;2023-03-14T01:05:13;8.50;99.90
3001;DHT22;1510;51.072;6.678;2023-03-14T01:07:40;8.60;99.90
3001;DHT22;1510;51.072;6.678;2023-03-14T01:12:46;8.80;99.90
3001;DHT22;1510;51.072;6.678;2023-03-14T01:15:15;8.80;99.90
3001;DHT22;1510;51.072;6.678;2023-03-14T01:17:42;8.70;99.90
3001;DHT22;1510;51.072;6.678;2023-03-14T01:20:13;8.80;99.90
3001;DHT22;1510;51.072;6.678;2023-03-14T01:22:43;8.70;99.90
3001;DHT22;1510;51.072;6.678;2023-03-14T01:25:12;8.70;99.90
3001;DHT22;1510;51.072;6.678;2023-03-14T01:27:41;8.70;99.90
3001;DHT22;1510;51.072;6.678;2023-03-14T01:30:12;8.70;99.90
3001;DHT22;1510;51.072;6.678;2023-03-14T01:32:40;8.60;99.90
3001;DHT22;1510;51.072;6.678;2023-03-14T01:35:10;8.70;99.90
3001;DHT22;1510;51.072;6.678;2023-03-14T01:37:38;8.60;99.90
3001;DHT22;1510;51.072;6.678;2023-03-14T01:40:06;8.70;99.90
3001;DHT22;1510;51.072;6.678;2023-03-14T01:42:34;8.80;99.90
3001;DHT22;1510;51.072;6.678;2023-03-14T01:45:02;8.80;99.90
3001;DHT22;1510;51.072;6.678;2023-03-14T01:47:29;8.70;99.90
3001;DHT22;1510;51.072;6.678;2023-03-14T01:49:59;8.70;99.90
3001;DHT22;1510;51.072;6.678;2023-03-14T01:52:31;8.80;99.90
3001;DHT22;1510;51.072;6.678;2023-03-14T01:55:03;8.80;99.90
3001;DHT22;1510;51.072;6.678;2023-03-14T01:57:35;8.70;99.90
3001;DHT22;1510;51.072;6.678;2023-03-14T02:00:07;8.60;99.90
3001;DHT22;1510;51.072;6.678;2023-03-14T02:02:38;8.60;99.90
3001;DHT22;1510;51.072;6.678;2023-03-14T02:05:14;8.60;99.90
3001;DHT22;1510;51.072;6.678;2023-03-14T02:07:47;8.60;99.90
3001;DHT22;1510;51.072;6.678;2023-03-14T02:10:21;8.60;99.90
3001;DHT22;1510;51.072;6.678;2023-03-14T02:12:49;8.70;99.90
3001;DHT22;1510;51.072;6.678;2023-03-14T02:15:23;8.80;99.90
3001;DHT22;1510;51.072;6.678;2023-03-14T02:17:50;8.60;99.90
3001;DHT22;1510;51.072;6.678;2023-03-14T02:20:27;8.60;99.90
3001;DHT22;1510;51.072;6.678;2023-03-14T02:22:55;8.60;99.90
3001;DHT22;1510;51.072;6.678;2023-03-14T02:25:26;8.60;99.90
3001;DHT22;1510;51.072;6.678;2023-03-14T02:27:56;8.80;99.90
3001;DHT22;1510;51.072;6.678;2023-03-14T02:30:25;8.80;99.90
3001;DHT22;1510;51.072;6.678;2023-03-14T02:32:55;8.80;99.90
3001;DHT22;1510;51.072;6.678;2023-03-14T03:01:22;9.20;99.90
3001;DHT22;1510;51.072;6.678;2023-03-14T03:03:49;9.20;99.90
3001;DHT22;1510;51.072;6.678;2023-03-14T03:06:17;9.10;99.90
3001;DHT22;1510;51.072;6.678;2023-03-14T03:08:44;9.10;99.90
3001;DHT22;1510;51.072;6.678;2023-03-14T04:29:00;8.90;99.90
3001;DHT22;1510;51.072;6.678;2023-03-14T04:31:34;9.00;99.90
3001;DHT22;1510;51.072;6.678;2023-03-14T04:34:02;9.00;99.90
3001;DHT22;1510;51.072;6.678;2023-03-14T04:36:34;9.00;99.90
3001;DHT22;1510;51.072;6.678;2023-03-14T04:39:04;9.10;99.90
3001;DHT22;1510;51.072;6.678;2023-03-14T04:41:35;9.10;99.90
3001;DHT22;1510;51.072;6.678;2023-03-14T04:44:03;9.20;99.90
3001;DHT22;1510;51.072;6.678;2023-03-14T05:08:29;9.20;99.90
3001;DHT22;1510;51.072;6.678;2023-03-14T05:10:57;9.20;99.90
3001;DHT22;1510;51.072;6.678;2023-03-14T05:13:24;9.20;99.90
3001;DHT22;1510;51.072;6.678;2023-03-14T05:15:52;9.10;99.90
3001;DHT22;1510;51.072;6.678;2023-03-14T05:18:20;9.30;99.90
3001;DHT22;1510;51.072;6.678;2023-03-14T05:20:50;9.20;99.90
3001;DHT22;1510;51.072;6.678;2023-03-14T05:23:19;9.30;99.90
3001;DHT22;1510;51.072;6.678;2023-03-14T05:25:51;9.20;99.90
3001;DHT22;1510;51.072;6.678;2023-03-14T06:08:21;9.50;99.90
3001;DHT22;1510;51.072;6.678;2023-03-14T06:10:53;9.40;99.90
3001;DHT22;1510;51.072;6.678;2023-03-14T06:13:21;9.60;99.90
3001;DHT22;1510;51.072;6.678;2023-03-14T06:15:50;9.60;99.90
3001;DHT22;1510;51.072;6.678;2023-03-14T06:18:19;9.80;99.90
3001;DHT22;1510;51.072;6.678;2023-03-14T06:20:49;9.80;99.90
3001;DHT22;1510;51.072;6.678;2023-03-14T06:23:16;9.70;99.90
3001;DHT22;1510;51.072;6.678;2023-03-14T06:25:45;9.60;99.90
3001;DHT22;1510;51.072;6.678;2023-03-14T06:28:13;9.70;99.90
3001;DHT22;1510;51.072;6.678;2023-03-14T06:30:42;9.80;99.90
3001;DHT22;1510;51.072;6.678;2023-03-14T06:33:10;9.90;99.90
3001;DHT22;1510;51.072;6.678;2023-03-14T06:35:39;10.00;99.90
3001;DHT22;1510;51.072;6.678;2023-03-14T06:38:06;10.00;99.90
3001;DHT22;1510;51.072;6.678;2023-03-14T06:40:34;10.20;99.90
3001;DHT22;1510;51.072;6.678;2023-03-14T06:43:02;10.30;99.90
3001;DHT22;1510;51.072;6.678;2023-03-14T06:45:29;10.30;99.90
3001;DHT22;1510;51.072;6.678;2023-03-14T06:47:56;10.40;99.90
3001;DHT22;1510;51.072;6.678;2023-03-14T06:50:25;10.30;99.90
3001;DHT22;1510;51.072;6.678;2023-03-14T06:52:53;10.40;99.90
3001;DHT22;1510;51.072;6.678;2023-03-14T06:55:20;10.30;99.90
3001;DHT22;1510;51.072;6.678;2023-03-14T07:02:59;10.50;99.90
3001;DHT22;1510;51.072;6.678;2023-03-14T07:05:26;10.60;99.90
3001;DHT22;1510;51.072;6.678;2023-03-14T07:07:53;10.50;99.90
3001;DHT22;1510;51.072;6.678;2023-03-14T07:10:22;10.70;99.90
3001;DHT22;1510;51.072;6.678;2023-03-14T07:12:49;10.60;99.90
3001;DHT22;1510;51.072;6.678;2023-03-14T07:15:18;10.50;99.90
3001;DHT22;1510;51.072;6.678;2023-03-14T07:17:45;10.60;99.90
3001;DHT22;1510;51.072;6.678;2023-03-14T07:20:18;10.70;99.90
3001;DHT22;1510;51.072;6.678;2023-03-14T07:22:50;10.90;99.90
3001;DHT22;1510;51.072;6.678;2023-03-14T07:25:21;11.00;99.90
3001;DHT22;1510;51.072;6.678;2023-03-14T07:27:48;11.10;99.90
3001;DHT22;1510;51.072;6.678;2023-03-14T07:30:15;11.10;99.90
3001;DHT22;1510;51.072;6.678;2023-03-14T07:32:44;11.20;99.90
3001;DHT22;1510;51.072;6.678;2023-03-14T07:35:11;11.30;99.90
3001;DHT22;1510;51.072;6.678;2023-03-14T07:37:43;11.30;99.90
3001;DHT22;1510;51.072;6.678;2023-03-14T07:40:10;11.30;99.90
3001;DHT22;1510;51.072;6.678;2023-03-14T07:42:42;11.20;99.90
3001;DHT22;1510;51.072;6.678;2023-03-14T07:45:10;11.30;99.90
3001;DHT22;1510;51.072;6.678;2023-03-14T07:47:37;11.30;99.90
3001;DHT22;1510;51.072;6.678;2023-03-14T07:50:05;11.40;99.90
3001;DHT22;1510;51.072;6.678;2023-03-14T07:52:32;11.40;99.90
3001;DHT22;1510;51.072;6.678;2023-03-14T07:55:04;11.50;99.90
3001;DHT22;1510;51.072;6.678;2023-03-14T07:57:31;11.60;99.90
3001;DHT22;1510;51.072;6.678;2023-03-14T07:59:58;11.70;99.90
3001;DHT22;1510;51.072;6.678;2023-03-14T08:02:25;11.80;99.90
3001;DHT22;1510;51.072;6.678;2023-03-14T08:04:52;12.00;99.90
3001;DHT22;1510;51.072;6.678;2023-03-14T08:07:20;12.10;99.90
3001;DHT22;1510;51.072;6.678;2023-03-14T08:09:47;12.10;99.90
3001;DHT22;1510;51.072;6.678;2023-03-14T08:12:20;11.90;99.90
3001;DHT22;1510;51.072;6.678;2023-03-14T08:14:49;11.90;99.90
3001;DHT22;1510;51.072;6.678;2023-03-14T08:17:16;12.00;99.90
3001;DHT22;1510;51.072;6.678;2023-03-14T08:19:43;11.90;99.90
3001;DHT22;1510;51.072;6.678;2023-03-14T08:22:13;11.60;99.90
3001;DHT22;1510;51.072;6.678;2023-03-14T08:24:41;11.70;99.90
3001;DHT22;1510;51.072;6.678;2023-03-14T08:27:09;11.70;99.90
3001;DHT22;1510;51.072;6.678;2023-03-14T08:29:45;11.70;99.90
3001;DHT22;1510;51.072;6.678;2023-03-14T08:32:16;11.80;99.90
3001;DHT22;1510;51.072;6.678;2023-03-14T08:34:43;11.90;99.90
3001;DHT22;1510;51.072;6.678;2023-03-14T08:37:10;12.10;99.90
3001;DHT22;1510;51.072;6.678;2023-03-14T08:39:38;12.20;99.90
3001;DHT22;1510;51.072;6.678;2023-03-14T08:42:07;12.30;99.90
3001;DHT22;1510;51.072;6.678;2023-03-14T08:44:35;12.20;99.90
3001;DHT22;1510;51.072;6.678;2023-03-14T08:47:06;12.10;99.90
3001;DHT22;1510;51.072;6.678;2023-03-14T08:49:34;11.90;99.90
3001;DHT22;1510;51.072;6.678;2023-03-14T08:52:09;11.70;99.90
3001;DHT22;1510;51.072;6.678;2023-03-14T08:54:39;11.60;99.90
3001;DHT22;1510;51.072;6.678;2023-03-14T08:57:12;11.50;99.90
3001;DHT22;1510;51.072;6.678;2023-03-14T08:59:39;11.40;99.90
3001;DHT22;1510;51.072;6.678;2023-03-14T09:02:09;11.40;99.90
3001;DHT22;1510;51.072;6.678;2023-03-14T09:04:37;11.30;99.90
3001;DHT22;1510;51.072;6.678;2023-03-14T09:07:04;11.20;99.90
3001;DHT22;1510;51.072;6.678;2023-03-14T09:09:38;10.90;99.90
3001;DHT22;1510;51.072;6.678;2023-03-14T09:12:05;10.50;99.90
3001;DHT22;1510;51.072;6.678;2023-03-14T09:14:32;10.40;99.90
3001;DHT22;1510;51.072;6.678;2023-03-14T09:17:09;10.10;99.90
3001;DHT22;1510;51.072;6.678;2023-03-14T09:19:37;9.70;99.90
3001;DHT22;1510;51.072;6.678;2023-03-14T09:22:06;9.30;99.90
3001;DHT22;1510;51.072;6.678;2023-03-14T09:24:33;8.90;99.90
3001;DHT22;1510;51.072;6.678;2023-03-14T09:27:02;8.60;99.90
3001;DHT22;1510;51.072;6.678;2023-03-14T09:29:45;8.20;99.90
3001;DHT22;1510;51.072;6.678;2023-03-14T09:32:16;8.00;99.90
3001;DHT22;1510;51.072;6.678;2023-03-14T09:34:44;7.90;99.90
3001;DHT22;1510;51.072;6.678;2023-03-14T09:37:13;7.90;99.90
3001;DHT22;1510;51.072;6.678;2023-03-14T09:39:41;7.80;99.90
3001;DHT22;1510;51.072;6.678;2023-03-14T09:42:17;7.80;99.90
3001;DHT22;1510;51.072;6.678;2023-03-14T09:44:54;7.90;99.90
3001;DHT22;1510;51.072;6.678;2023-03-14T09:47:29;8.10;99.90
3001;DHT22;1510;51.072;6.678;2023-03-14T09:49:56;8.10;99.90
3001;DHT22;1510;51.072;6.678;2023-03-14T09:52:31;8.10;99.90
3001;DHT22;1510;51.072;6.678;2023-03-14T09:55:01;8.30;99.90
3001;DHT22;1510;51.072;6.678;2023-03-14T09:57:36;8.10;99.90
3001;DHT22;1510;51.072;6.678;2023-03-14T10:00:14;8.10;99.90
3001;DHT22;1510;51.072;6.678;2023-03-14T10:02:53;8.00;99.90
3001;DHT22;1510;51.072;6.678;2023-03-14T10:05:25;7.90;99.90
3001;DHT22;1510;51.072;6.678;2023-03-14T10:07:53;8.00;99.90
3001;DHT22;1510;51.072;6.678;2023-03-14T10:10:25;8.00;99.90
3001;DHT22;1510;51.072;6.678;2023-03-14T10:12:55;7.90;99.90
3001;DHT22;1510;51.072;6.678;2023-03-14T10:15:26;7.70;99.90
3001;DHT22;1510;51.072;6.678;2023-03-14T10:17:59;7.80;99.90
3001;DHT22;1510;51.072;6.678;2023-03-14T10:20:34;7.50;99.90
3001;DHT22;1510;51.072;6.678;2023-03-14T10:23:05;7.40;99.90
3001;DHT22;1510;51.072;6.678;2023-03-14T10:25:35;7.40;99.90
3001;DHT22;1510;51.072;6.678;2023-03-14T10:28:04;7.50;99.90
3001;DHT22;1510;51.072;6.678;2023-03-14T10:30:40;7.60;99.90
3001;DHT22;1510;51.072;6.678;2023-03-14T10:33:19;7.70;99.90
3001;DHT22;1510;51.072;6.678;2023-03-14T10:35:52;7.90;99.90
3001;DHT22;1510;51.072;6.678;2023-03-14T10:38:20;7.90;99.90
3001;DHT22;1510;51.072;6.678;2023-03-14T10:40:52;8.10;99.90
3001;DHT22;1510;51.072;6.678;2023-03-14T10:43:25;8.50;99.90
3001;DHT22;1510;51.072;6.678;2023-03-14T10:45:55;8.40;99.90
3001;DHT22;1510;51.072;6.678;2023-03-14T10:48:30;8.50;99.90
3001;DHT22;1510;51.072;6.678;2023-03-14T10:51:03;8.60;99.90
3001;DHT22;1510;51.072;6.678;2023-03-14T10:53:34;8.60;99.90
3001;DHT22;1510;51.072;6.678;2023-03-14T10:56:03;8.70;99.90
3001;DHT22;1510;51.072;6.678;2023-03-14T10:58:38;8.70;99.90
3001;DHT22;1510;51.072;6.678;2023-03-14T11:01:16;8.80;99.90
3001;DHT22;1510;51.072;6.678;2023-03-14T11:03:51;8.70;99.90
3001;DHT22;1510;51.072;6.678;2023-03-14T11:06:26;9.30;99.90
3001;DHT22;1510;51.072;6.678;2023-03-14T11:09:02;9.60;99.90
3001;DHT22;1510;51.072;6.678;2023-03-14T11:11:35;9.80;99.90
3001;DHT22;1510;51.072;6.678;2023-03-14T11:14:12;10.10;99.90
3001;DHT22;1510;51.072;6.678;2023-03-14T11:16:50;9.70;99.90
3001;DHT22;1510;51.072;6.678;2023-03-14T12:01:53;7.20;99.90
3001;DHT22;1510;51.072;6.678;2023-03-14T12:04:34;7.50;99.90
3001;DHT22;1510;51.072;6.678;2023-03-14T12:07:22;7.20;99.90
3001;DHT22;1510;51.072;6.678;2023-03-14T12:09:54;6.80;99.90
3001;DHT22;1510;51.072;6.678;2023-03-14T12:12:30;6.40;99.90
3001;DHT22;1510;51.072;6.678;2023-03-14T12:14:59;6.40;99.90
3001;DHT22;1510;51.072;6.678;2023-03-14T12:17:36;6.40;99.90
3001;DHT22;1510;51.072;6.678;2023-03-14T12:20:15;6.50;99.90
3001;DHT22;1510;51.072;6.678;2023-03-14T12:30:52;6.40;99.90
3001;DHT22;1510;51.072;6.678;2023-03-14T12:33:30;6.30;99.90
3001;DHT22;1510;51.072;6.678;2023-03-14T12:39:47;6.00;99.90
3001;DHT22;1510;51.072;6.678;2023-03-14T12:42:18;5.90;99.90
3001;DHT22;1510;51.072;6.678;2023-03-14T12:44:48;6.00;99.90
3001;DHT22;1510;51.072;6.678;2023-03-14T12:47:47;6.20;99.90
3001;DHT22;1510;51.072;6.678;2023-03-14T12:50:35;6.60;99.90
3001;DHT22;1510;51.072;6.678;2023-03-14T12:57:04;7.30;99.90
3001;DHT22;1510;51.072;6.678;2023-03-14T12:59:36;7.30;99.90
3001;DHT22;1510;51.072;6.678;2023-03-14T13:02:27;7.60;99.90
3001;DHT22;1510;51.072;6.678;2023-03-14T13:05:05;8.20;99.90
3001;DHT22;1510;51.072;6.678;2023-03-14T13:08:08;9.10;99.90
3001;DHT22;1510;51.072;6.678;2023-03-14T13:10:45;9.40;99.90
3001;DHT22;1510;51.072;6.678;2023-03-14T13:13:20;7.60;99.90
3001;DHT22;1510;51.072;6.678;2023-03-14T13:15:54;6.20;99.90
3001;DHT22;1510;51.072;6.678;2023-03-14T13:18:27;5.30;99.90
3001;DHT22;1510;51.072;6.678;2023-03-14T13:21:21;5.10;99.90
3001;DHT22;1510;51.072;6.678;2023-03-14T14:01:55;7.10;99.90
3001;DHT22;1510;51.072;6.678;2023-03-14T14:04:27;7.00;99.90
3001;DHT22;1510;51.072;6.678;2023-03-14T14:07:08;7.30;99.90
3001;DHT22;1510;51.072;6.678;2023-03-14T14:09:44;7.20;99.90
3001;DHT22;1510;51.072;6.678;2023-03-14T14:12:18;7.20;99.90
3001;DHT22;1510;51.072;6.678;2023-03-14T14:14:54;7.30;99.90
3001;DHT22;1510;51.072;6.678;2023-03-14T14:33:22;7.80;99.90
3001;DHT22;1510;51.072;6.678;2023-03-14T14:35:57;8.00;99.90
3001;DHT22;1510;51.072;6.678;2023-03-14T14:38:25;7.90;99.90
3001;DHT22;1510;51.072;6.678;2023-03-14T14:40:54;8.00;99.90
3001;DHT22;1510;51.072;6.678;2023-03-14T14:43:26;8.00;99.90
3001;DHT22;1510;51.072;6.678;2023-03-14T14:45:54;7.90;99.90
3001;DHT22;1510;51.072;6.678;2023-03-14T14:48:26;8.00;99.90
3001;DHT22;1510;51.072;6.678;2023-03-14T14:51:00;8.00;99.90
3001;DHT22;1510;51.072;6.678;2023-03-14T14:53:30;8.10;99.90
3001;DHT22;1510;51.072;6.678;2023-03-14T14:56:06;8.10;99.90
3001;DHT22;1510;51.072;6.678;2023-03-14T14:58:36;8.10;99.90
3001;DHT22;1510;51.072;6.678;2023-03-14T15:01:07;8.20;99.90
3001;DHT22;1510;51.072;6.678;2023-03-14T15:03:36;8.20;99.90
3001;DHT22;1510;51.072;6.678;2023-03-14T15:06:04;8.10;99.90
3001;DHT22;1510;51.072;6.678;2023-03-14T15:08:32;8.20;99.90
3001;DHT22;1510;51.072;6.678;2023-03-14T15:10:59;8.10;99.90
3001;DHT22;1510;51.072;6.678;2023-03-14T15:13:26;8.10;99.90
3001;DHT22;1510;51.072;6.678;2023-03-14T15:15:53;8.20;99.90
3001;DHT22;1510;51.072;6.678;2023-03-14T15:18:23;8.20;99.90
3001;DHT22;1510;51.072;6.678;2023-03-14T15:20:52;8.20;99.90
3001;DHT22;1510;51.072;6.678;2023-03-14T15:23:22;8.10;99.90
3001;DHT22;1510;51.072;6.678;2023-03-14T15:25:49;8.20;99.90
3001;DHT22;1510;51.072;6.678;2023-03-14T15:28:17;8.30;99.90
3001;DHT22;1510;51.072;6.678;2023-03-14T15:30:45;8.30;99.90
3001;DHT22;1510;51.072;6.678;2023-03-14T15:33:13;8.30;99.90
3001;DHT22;1510;51.072;6.678;2023-03-14T15:35:40;8.20;99.90
3001;DHT22;1510;51.072;6.678;2023-03-14T15:38:18;8.10;99.90
3001;DHT22;1510;51.072;6.678;2023-03-14T15:40:48;8.10;99.90
3001;DHT22;1510;51.072;6.678;2023-03-14T15:43:16;8.10;99.90
3001;DHT22;1510;51.072;6.678;2023-03-14T15:45:43;8.10;99.90
3001;DHT22;1510;51.072;6.678;2023-03-14T15:48:14;7.90;95.50
3001;DHT22;1510;51.072;6.678;2023-03-14T15:50:43;7.90;99.90
3001;DHT22;1510;51.072;6.678;2023-03-14T15:53:11;7.80;99.20
3001;DHT22;1510;51.072;6.678;2023-03-14T15:55:39;7.80;99.90
3001;DHT22;1510;51.072;6.678;2023-03-14T15:58:07;7.80;98.70
3001;DHT22;1510;51.072;6.678;2023-03-14T16:00:37;7.80;97.80
3001;DHT22;1510;51.072;6.678;2023-03-14T16:03:04;7.80;99.90
3001;DHT22;1510;51.072;6.678;2023-03-14T16:05:31;7.60;99.90
3001;DHT22;1510;51.072;6.678;2023-03-14T16:07:58;7.60;97.10
3001;DHT22;1510;51.072;6.678;2023-03-14T16:10:27;7.60;98.50
3001;DHT22;1510;51.072;6.678;2023-03-14T16:12:55;7.60;91.90
3001;DHT22;1510;51.072;6.678;2023-03-14T16:15:25;7.50;91.70
3001;DHT22;1510;51.072;6.678;2023-03-14T16:17:52;7.50;93.80
3001;DHT22;1510;51.072;6.678;2023-03-14T16:20:19;7.40;96.30
3001;DHT22;1510;51.072;6.678;2023-03-14T16:22:46;7.40;95.20
3001;DHT22;1510;51.072;6.678;2023-03-14T16:25:14;7.30;93.10
3001;DHT22;1510;51.072;6.678;2023-03-14T16:27:43;7.30;95.50
3001;DHT22;1510;51.072;6.678;2023-03-14T16:30:14;7.30;91.80
3001;DHT22;1510;51.072;6.678;2023-03-14T16:32:45;7.20;90.30
3001;DHT22;1510;51.072;6.678;2023-03-14T16:35:15;7.20;90.10
3001;DHT22;1510;51.072;6.678;2023-03-14T16:37:42;7.10;90.60
3001;DHT22;1510;51.072;6.678;2023-03-14T16:40:12;7.00;88.50
3001;DHT22;1510;51.072;6.678;2023-03-14T16:42:39;6.90;93.10
3001;DHT22;1510;51.072;6.678;2023-03-14T16:45:12;6.80;91.60
3001;DHT22;1510;51.072;6.678;2023-03-14T16:47:43;6.80;88.60
3001;DHT22;1510;51.072;6.678;2023-03-14T16:50:10;6.80;91.90
3001;DHT22;1510;51.072;6.678;2023-03-14T16:52:37;6.70;93.20
3001;DHT22;1510;51.072;6.678;2023-03-14T16:55:04;6.60;93.40
3001;DHT22;1510;51.072;6.678;2023-03-14T16:57:32;6.60;92.60
3001;DHT22;1510;51.072;6.678;2023-03-14T16:59:59;6.50;94.40
3001;DHT22;1510;51.072;6.678;2023-03-14T17:02:25;6.40;93.90
3001;DHT22;1510;51.072;6.678;2023-03-14T17:04:54;6.40;95.00
3001;DHT22;1510;51.072;6.678;2023-03-14T17:07:22;6.30;93.40
3001;DHT22;1510;51.072;6.678;2023-03-14T17:09:49;6.20;94.40
3001;DHT22;1510;51.072;6.678;2023-03-14T17:12:16;6.20;97.00
3001;DHT22;1510;51.072;6.678;2023-03-14T17:14:46;6.20;94.90
3001;DHT22;1510;51.072;6.678;2023-03-14T17:17:16;6.20;95.60
3001;DHT22;1510;51.072;6.678;2023-03-14T17:19:44;6.20;96.60
3001;DHT22;1510;51.072;6.678;2023-03-14T17:22:12;6.10;94.70
3001;DHT22;1510;51.072;6.678;2023-03-14T17:24:39;6.30;95.20
3001;DHT22;1510;51.072;6.678;2023-03-14T17:27:06;6.20;95.60
3001;DHT22;1510;51.072;6.678;2023-03-14T17:29:34;6.10;97.40
3001;DHT22;1510;51.072;6.678;2023-03-14T17:32:02;6.10;99.30
3001;DHT22;1510;51.072;6.678;2023-03-14T17:34:28;6.00;98.60
3001;DHT22;1510;51.072;6.678;2023-03-14T17:36:57;6.10;98.90
3001;DHT22;1510;51.072;6.678;2023-03-14T17:39:25;6.00;97.90
3001;DHT22;1510;51.072;6.678;2023-03-14T17:41:52;6.10;96.50
3001;DHT22;1510;51.072;6.678;2023-03-14T17:44:19;6.00;98.10
3001;DHT22;1510;51.072;6.678;2023-03-14T17:46:47;6.10;94.90
3001;DHT22;1510;51.072;6.678;2023-03-14T17:49:14;6.00;96.90
3001;DHT22;1510;51.072;6.678;2023-03-14T17:51:40;6.00;95.10
3001;DHT22;1510;51.072;6.678;2023-03-14T17:54:07;6.00;96.50
3001;DHT22;1510;51.072;6.678;2023-03-14T17:56:35;5.80;99.90
3001;DHT22;1510;51.072;6.678;2023-03-14T17:59:02;5.70;99.90
3001;DHT22;1510;51.072;6.678;2023-03-14T18:01:29;5.70;99.20
3001;DHT22;1510;51.072;6.678;2023-03-14T18:03:56;5.70;99.20
3001;DHT22;1510;51.072;6.678;2023-03-14T18:06:23;5.60;98.80
3001;DHT22;1510;51.072;6.678;2023-03-14T18:08:52;5.50;99.10
3001;DHT22;1510;51.072;6.678;2023-03-14T18:11:21;5.50;97.90
3001;DHT22;1510;51.072;6.678;2023-03-14T18:13:50;5.50;99.50
3001;DHT22;1510;51.072;6.678;2023-03-14T18:16:17;5.50;98.00
3001;DHT22;1510;51.072;6.678;2023-03-14T18:18:47;5.40;97.50
3001;DHT22;1510;51.072;6.678;2023-03-14T18:21:16;5.40;97.80
3001;DHT22;1510;51.072;6.678;2023-03-14T18:23:43;5.40;96.30
3001;DHT22;1510;51.072;6.678;2023-03-14T18:26:10;5.40;97.50
3001;DHT22;1510;51.072;6.678;2023-03-14T18:28:37;5.40;96.30
3001;DHT22;1510;51.072;6.678;2023-03-14T18:31:08;5.30;97.50
3001;DHT22;1510;51.072;6.678;2023-03-14T18:33:36;5.30;98.70
3001;DHT22;1510;51.072;6.678;2023-03-14T18:36:05;5.20;97.80
3001;DHT22;1510;51.072;6.678;2023-03-14T18:38:33;5.10;99.30
3001;DHT22;1510;51.072;6.678;2023-03-14T18:41:04;5.00;99.70
3001;DHT22;1510;51.072;6.678;2023-03-14T18:43:31;5.10;99.20
3001;DHT22;1510;51.072;6.678;2023-03-14T18:45:59;5.00;97.00
3001;DHT22;1510;51.072;6.678;2023-03-14T18:48:28;5.10;96.70
3001;DHT22;1510;51.072;6.678;2023-03-14T18:50:56;5.10;97.80
3001;DHT22;1510;51.072;6.678;2023-03-14T18:53:23;5.00;96.10
3001;DHT22;1510;51.072;6.678;2023-03-14T18:55:56;4.90;96.10
3001;DHT22;1510;51.072;6.678;2023-03-14T18:58:23;4.90;97.80
3001;DHT22;1510;51.072;6.678;2023-03-14T19:00:55;4.80;98.40
3001;DHT22;1510;51.072;6.678;2023-03-14T19:03:22;4.80;96.70
3001;DHT22;1510;51.072;6.678;2023-03-14T19:05:52;4.80;97.40
3001;DHT22;1510;51.072;6.678;2023-03-14T19:08:19;4.80;96.00
3001;DHT22;1510;51.072;6.678;2023-03-14T19:10:48;4.80;96.10
3001;DHT22;1510;51.072;6.678;2023-03-14T19:13:15;4.80;96.00
3001;DHT22;1510;51.072;6.678;2023-03-14T19:15:42;4.70;97.40
3001;DHT22;1510;51.072;6.678;2023-03-14T19:18:09;4.70;97.00
3001;DHT22;1510;51.072;6.678;2023-03-14T19:20:36;4.70;96.00
3001;DHT22;1510;51.072;6.678;2023-03-14T19:23:04;4.70;97.00
3001;DHT22;1510;51.072;6.678;2023-03-14T19:25:31;4.60;98.00
3001;DHT22;1510;51.072;6.678;2023-03-14T19:27:59;4.60;98.30
3001;DHT22;1510;51.072;6.678;2023-03-14T19:30:27;4.50;99.40
3001;DHT22;1510;51.072;6.678;2023-03-14T19:32:54;4.40;98.70
3001;DHT22;1510;51.072;6.678;2023-03-14T19:35:21;4.40;99.90
3001;DHT22;1510;51.072;6.678;2023-03-14T19:37:48;4.30;99.10
3001;DHT22;1510;51.072;6.678;2023-03-14T19:40:17;4.40;98.50
3001;DHT22;1510;51.072;6.678;2023-03-14T19:42:46;4.30;99.90
3001;DHT22;1510;51.072;6.678;2023-03-14T19:45:18;4.30;99.10
3001;DHT22;1510;51.072;6.678;2023-03-14T19:47:45;4.30;99.70
3001;DHT22;1510;51.072;6.678;2023-03-14T19:50:16;4.20;99.90
3001;DHT22;1510;51.072;6.678;2023-03-14T19:52:43;4.10;99.90
3001;DHT22;1510;51.072;6.678;2023-03-14T19:55:12;4.00;99.90
3001;DHT22;1510;51.072;6.678;2023-03-14T19:57:42;4.00;99.90
3001;DHT22;1510;51.072;6.678;2023-03-14T20:00:12;3.90;99.90
3001;DHT22;1510;51.072;6.678;2023-03-14T20:02:41;3.90;99.90
3001;DHT22;1510;51.072;6.678;2023-03-14T20:05:09;3.80;99.90
3001;DHT22;1510;51.072;6.678;2023-03-14T20:07:37;3.70;99.90
3001;DHT22;1510;51.072;6.678;2023-03-14T20:10:08;3.80;99.90
3001;DHT22;1510;51.072;6.678;2023-03-14T20:12:36;3.60;99.90
3001;DHT22;1510;51.072;6.678;2023-03-14T20:15:08;3.50;99.90
3001;DHT22;1510;51.072;6.678;2023-03-14T20:17:35;3.40;99.90
3001;DHT22;1510;51.072;6.678;2023-03-14T20:20:06;3.40;99.90
3001;DHT22;1510;51.072;6.678;2023-03-14T20:22:35;3.30;99.90
3001;DHT22;1510;51.072;6.678;2023-03-14T20:25:03;3.30;99.90
3001;DHT22;1510;51.072;6.678;2023-03-14T20:27:30;3.10;99.90
3001;DHT22;1510;51.072;6.678;2023-03-14T20:29:58;3.00;99.90
3001;DHT22;1510;51.072;6.678;2023-03-14T20:32:28;2.90;99.90
3001;DHT22;1510;51.072;6.678;2023-03-14T20:37:30;2.80;99.90
3001;DHT22;1510;51.072;6.678;2023-03-14T20:39:58;2.80;99.90
3001;DHT22;1510;51.072;6.678;2023-03-14T20:42:25;2.70;99.90
3001;DHT22;1510;51.072;6.678;2023-03-14T20:44:52;2.70;99.90
3001;DHT22;1510;51.072;6.678;2023-03-14T20:47:19;2.70;99.90
3001;DHT22;1510;51.072;6.678;2023-03-14T20:49:48;2.70;99.90
3001;DHT22;1510;51.072;6.678;2023-03-14T20:52:15;2.60;99.90
3001;DHT22;1510;51.072;6.678;2023-03-14T20:54:43;2.50;99.90
3001;DHT22;1510;51.072;6.678;2023-03-14T20:57:10;2.50;99.90
3001;DHT22;1510;51.072;6.678;2023-03-14T20:59:39;2.40;99.90
3001;DHT22;1510;51.072;6.678;2023-03-14T21:02:08;2.50;99.90
3001;DHT22;1510;51.072;6.678;2023-03-14T21:04:37;2.50;99.90
3001;DHT22;1510;51.072;6.678;2023-03-14T21:07:06;2.70;99.90
3001;DHT22;1510;51.072;6.678;2023-03-14T21:09:39;2.70;99.90
3001;DHT22;1510;51.072;6.678;2023-03-14T21:12:06;2.70;99.90
3001;DHT22;1510;51.072;6.678;2023-03-14T21:14:36;2.80;99.90
3001;DHT22;1510;51.072;6.678;2023-03-14T21:17:03;2.90;99.90
3001;DHT22;1510;51.072;6.678;2023-03-14T21:19:31;2.80;99.90